createdAt,value
2018-12-31T00:01:37.642Z,30.63
2018-12-31T00:04:04.278Z,29.37
2018-12-31T00:06:30.574Z,32.27
2018-12-31T00:08:56.989Z,29.00
2018-12-31T00:11:23.564Z,33.80
2018-12-31T00:13:49.959Z,32.10
2018-12-31T00:16:16.475Z,36.17
2018-12-31T00:18:43.044Z,38.43
2018-12-31T00:21:09.549Z,33.10
2018-12-31T00:23:36.207Z,35.10
2018-12-31T00:26:02.848Z,33.20
2018-12-31T00:28:29.392Z,34.37
2018-12-31T00:30:55.934Z,35.60
2018-12-31T00:33:22.323Z,37.90
2018-12-31T00:35:48.843Z,37.57
2018-12-31T00:38:15.530Z,36.10
2018-12-31T00:40:41.982Z,35.33
2018-12-31T00:43:08.611Z,36.73
2018-12-31T00:45:35.004Z,39.97
2018-12-31T00:48:01.645Z,38.63
2018-12-31T00:50:28.069Z,37.47
2018-12-31T00:52:54.529Z,41.37
2018-12-31T00:55:20.954Z,42.60
2018-12-31T00:57:47.503Z,46.40
2018-12-31T01:00:14.026Z,45.47
2018-12-31T01:02:40.551Z,48.43
2018-12-31T01:05:07.259Z,49.53
2018-12-31T01:07:33.758Z,47.30
2018-12-31T01:10:00.664Z,49.03
2018-12-31T01:12:27.244Z,48.00
2018-12-31T01:14:53.784Z,40.53
2018-12-31T01:17:20.215Z,43.17
2018-12-31T01:19:46.709Z,40.43
2018-12-31T01:22:13.248Z,42.37
2018-12-31T01:24:39.854Z,40.00
2018-12-31T01:27:06.305Z,40.23
2018-12-31T01:29:32.599Z,40.10
2018-12-31T01:31:59.135Z,40.03
2018-12-31T01:34:25.522Z,39.27
2018-12-31T01:36:51.822Z,37.37
2018-12-31T01:39:18.116Z,36.13
2018-12-31T01:41:44.485Z,38.33
2018-12-31T01:44:10.821Z,36.50
2018-12-31T01:46:37.148Z,34.70
2018-12-31T01:49:03.598Z,36.13
2018-12-31T01:51:30.133Z,35.50
2018-12-31T01:53:56.434Z,32.37
2018-12-31T01:56:22.836Z,33.90
2018-12-31T01:58:49.311Z,38.13
2018-12-31T02:01:15.741Z,41.70
2018-12-31T02:03:42.131Z,46.13
2018-12-31T02:06:08.501Z,40.80
2018-12-31T02:08:34.962Z,36.00
2018-12-31T02:11:01.688Z,43.27
2018-12-31T02:13:28.186Z,42.23
2018-12-31T02:15:54.611Z,46.23
2018-12-31T02:18:20.957Z,49.97
2018-12-31T02:20:47.254Z,51.93
2018-12-31T02:23:13.567Z,54.87
2018-12-31T02:25:39.933Z,57.40
2018-12-31T02:28:06.225Z,49.53
2018-12-31T02:30:32.622Z,44.63
2018-12-31T02:32:59.043Z,43.27
2018-12-31T02:35:25.588Z,44.10
2018-12-31T02:37:52.228Z,43.20
2018-12-31T02:40:18.560Z,43.47
2018-12-31T02:42:45.068Z,40.10
2018-12-31T02:45:11.362Z,40.23
2018-12-31T02:47:37.802Z,44.07
2018-12-31T02:50:05.523Z,41.53
2018-12-31T02:52:31.911Z,37.33
2018-12-31T02:54:58.304Z,40.00
2018-12-31T02:57:24.688Z,43.60
2018-12-31T02:59:51.071Z,40.10
2018-12-31T03:02:17.451Z,43.97
2018-12-31T03:04:43.983Z,43.23
2018-12-31T03:07:10.724Z,48.30
2018-12-31T03:09:37.066Z,44.90
2018-12-31T03:12:03.333Z,41.87
2018-12-31T03:14:29.742Z,39.70
2018-12-31T03:16:56.039Z,39.73
2018-12-31T03:19:22.451Z,37.27
2018-12-31T03:21:48.754Z,36.10
2018-12-31T03:24:15.278Z,40.53
2018-12-31T03:26:41.542Z,44.70
2018-12-31T03:29:08.049Z,46.57
2018-12-31T03:31:34.355Z,44.37
2018-12-31T03:34:00.889Z,46.23
2018-12-31T03:36:27.468Z,48.43
2018-12-31T03:38:53.708Z,50.47
2018-12-31T03:41:20.008Z,52.23
2018-12-31T03:43:46.312Z,54.77
2018-12-31T03:46:12.712Z,54.03
2018-12-31T03:48:39.108Z,56.27
2018-12-31T03:51:05.615Z,52.07
2018-12-31T03:53:31.919Z,48.13
2018-12-31T03:55:58.377Z,54.03
2018-12-31T03:58:25.044Z,51.73
2018-12-31T04:00:51.432Z,52.70
2018-12-31T04:03:17.817Z,58.30
2018-12-31T04:05:44.333Z,68.37
2018-12-31T04:08:10.773Z,70.90
2018-12-31T04:10:37.045Z,71.27
2018-12-31T04:13:03.452Z,76.60
2018-12-31T04:15:29.926Z,87.50
2018-12-31T04:17:56.234Z,85.53
2018-12-31T04:20:22.635Z,86.43
2018-12-31T04:22:48.920Z,87.60
2018-12-31T04:25:15.194Z,88.53
2018-12-31T04:27:41.591Z,91.17
2018-12-31T04:30:08.085Z,98.63
2018-12-31T04:32:34.479Z,90.60
2018-12-31T04:35:00.979Z,100.77
2018-12-31T04:37:27.384Z,93.20
2018-12-31T04:39:53.685Z,96.53
2018-12-31T04:42:19.971Z,98.13
2018-12-31T04:44:46.395Z,102.77
2018-12-31T04:47:12.679Z,97.83
2018-12-31T04:49:39.104Z,97.53
2018-12-31T04:52:05.409Z,99.10
2018-12-31T04:54:31.672Z,113.47
2018-12-31T04:56:58.016Z,106.53
2018-12-31T04:59:24.404Z,110.27
2018-12-31T05:01:50.788Z,111.00
2018-12-31T05:04:17.198Z,104.97
2018-12-31T05:06:43.497Z,106.90
2018-12-31T05:09:09.808Z,109.53
2018-12-31T05:11:36.105Z,110.73
2018-12-31T05:14:02.513Z,114.90
2018-12-31T05:16:28.909Z,118.80
2018-12-31T05:18:55.330Z,112.10
2018-12-31T05:21:21.717Z,119.80
2018-12-31T05:23:48.033Z,138.63
2018-12-31T05:26:14.461Z,126.73
2018-12-31T05:28:40.738Z,141.43
2018-12-31T05:31:07.028Z,132.47
2018-12-31T05:33:33.425Z,124.97
2018-12-31T05:35:59.915Z,122.40
2018-12-31T05:38:26.233Z,125.90
2018-12-31T05:40:52.611Z,123.27
2018-12-31T05:43:19.085Z,130.87
2018-12-31T05:45:45.504Z,120.07
2018-12-31T05:48:11.874Z,127.77
2018-12-31T05:50:38.167Z,115.70
2018-12-31T05:53:04.453Z,119.57
2018-12-31T05:55:30.744Z,108.87
2018-12-31T05:57:57.085Z,109.20
2018-12-31T06:00:23.389Z,109.73
2018-12-31T06:02:49.810Z,107.80
2018-12-31T06:05:16.194Z,102.50
2018-12-31T06:07:42.518Z,85.47
2018-12-31T06:10:09.089Z,83.63
2018-12-31T06:12:35.379Z,76.17
2018-12-31T06:15:02.613Z,87.20
2018-12-31T06:17:28.873Z,81.50
2018-12-31T06:19:55.219Z,83.90
2018-12-31T06:22:21.497Z,74.60
2018-12-31T06:24:47.778Z,82.37
2018-12-31T06:27:14.073Z,99.27
2018-12-31T06:29:40.383Z,87.20
2018-12-31T06:32:06.680Z,86.00
2018-12-31T06:34:33.150Z,82.90
2018-12-31T06:36:59.564Z,85.67
2018-12-31T06:39:25.862Z,88.50
2018-12-31T06:41:52.320Z,91.17
2018-12-31T06:44:18.620Z,92.73
2018-12-31T06:46:44.904Z,82.60
2018-12-31T06:49:11.189Z,89.57
2018-12-31T06:51:37.493Z,81.43
2018-12-31T06:54:03.817Z,82.30
2018-12-31T06:56:30.139Z,88.73
2018-12-31T06:58:56.451Z,79.90
2018-12-31T07:01:22.719Z,78.20
2018-12-31T07:03:49.020Z,79.67
2018-12-31T07:06:15.303Z,79.63
2018-12-31T07:08:41.618Z,82.50
2018-12-31T07:11:08.033Z,74.93
2018-12-31T07:13:34.397Z,73.00
2018-12-31T07:16:00.797Z,75.37
2018-12-31T07:18:27.199Z,79.43
2018-12-31T07:20:53.608Z,82.87
2018-12-31T07:23:19.885Z,93.33
2018-12-31T07:25:46.284Z,84.77
2018-12-31T07:28:12.776Z,87.23
2018-12-31T07:30:39.235Z,82.47
2018-12-31T07:33:05.494Z,72.83
2018-12-31T07:35:31.896Z,75.67
2018-12-31T07:37:58.196Z,71.67
2018-12-31T07:40:24.599Z,72.43
2018-12-31T07:42:50.998Z,70.37
2018-12-31T07:45:17.400Z,63.50
2018-12-31T07:47:43.738Z,79.23
2018-12-31T07:50:10.337Z,72.07
2018-12-31T07:52:36.755Z,75.90
2018-12-31T07:55:03.865Z,70.60
2018-12-31T07:57:30.190Z,69.10
2018-12-31T07:59:56.569Z,68.30
2018-12-31T08:02:22.962Z,76.97
2018-12-31T08:04:49.255Z,68.83
2018-12-31T08:07:15.958Z,59.50
2018-12-31T08:09:42.389Z,59.10
2018-12-31T08:12:08.779Z,52.30
2018-12-31T08:14:35.064Z,62.47
2018-12-31T08:17:01.729Z,57.23
2018-12-31T08:19:28.030Z,54.00
2018-12-31T08:21:54.414Z,55.63
2018-12-31T08:24:21.354Z,49.40
2018-12-31T08:26:47.830Z,56.40
2018-12-31T08:29:14.141Z,56.77
2018-12-31T08:31:40.555Z,57.40
2018-12-31T08:34:07.127Z,56.37
2018-12-31T08:36:33.527Z,58.53
2018-12-31T08:38:59.935Z,57.20
2018-12-31T08:41:26.246Z,52.87
2018-12-31T08:43:52.681Z,55.60
2018-12-31T08:46:19.088Z,44.73
2018-12-31T08:48:45.641Z,47.27
2018-12-31T08:51:11.985Z,55.23
2018-12-31T08:53:38.490Z,50.33
2018-12-31T08:56:04.914Z,56.87
2018-12-31T08:58:31.480Z,53.80
2018-12-31T09:00:58.145Z,56.43
2018-12-31T09:03:24.555Z,60.27
2018-12-31T09:05:51.165Z,60.17
2018-12-31T09:08:17.736Z,64.73
2018-12-31T09:10:44.138Z,58.70
2018-12-31T09:13:10.715Z,56.07
2018-12-31T09:15:37.303Z,59.17
2018-12-31T09:18:03.714Z,58.80
2018-12-31T09:20:30.213Z,59.20
2018-12-31T09:22:56.602Z,63.07
2018-12-31T09:25:22.951Z,67.43
2018-12-31T09:27:49.795Z,67.07
2018-12-31T09:30:16.160Z,57.80
2018-12-31T09:32:42.492Z,61.77
2018-12-31T09:35:09.296Z,50.67
2018-12-31T09:37:35.958Z,56.43
2018-12-31T09:40:03.736Z,53.90
2018-12-31T09:42:30.211Z,57.07
2018-12-31T09:44:56.594Z,59.10
2018-12-31T09:47:23.044Z,72.07
2018-12-31T09:49:49.590Z,56.33
2018-12-31T09:52:16.118Z,51.93
2018-12-31T09:54:42.711Z,47.47
2018-12-31T09:57:09.235Z,47.43
2018-12-31T09:59:35.900Z,59.90
2018-12-31T10:02:02.422Z,57.87
2018-12-31T10:04:28.983Z,60.20
2018-12-31T10:06:55.486Z,55.20
2018-12-31T10:09:21.967Z,64.87
2018-12-31T10:11:48.506Z,68.37
2018-12-31T10:14:15.045Z,58.27
2018-12-31T10:16:42.297Z,60.20
2018-12-31T10:19:08.669Z,58.50
2018-12-31T10:21:40.970Z,55.83
2018-12-31T10:24:04.472Z,53.40
2018-12-31T10:26:30.864Z,57.20
2018-12-31T10:28:57.358Z,54.63
2018-12-31T10:31:24.051Z,49.57
2018-12-31T10:33:50.535Z,55.33
2018-12-31T10:36:16.957Z,59.80
2018-12-31T10:38:43.585Z,48.43
2018-12-31T10:41:10.113Z,49.67
2018-12-31T10:43:36.539Z,52.90
2018-12-31T10:46:03.049Z,47.27
2018-12-31T10:48:29.479Z,55.03
2018-12-31T10:50:55.875Z,50.80
2018-12-31T10:53:22.355Z,56.10
2018-12-31T10:55:48.782Z,55.47
2018-12-31T10:58:15.699Z,70.40
2018-12-31T11:00:42.336Z,58.83
2018-12-31T11:03:09.110Z,55.20
2018-12-31T11:05:35.607Z,66.13
2018-12-31T11:08:02.215Z,62.73
2018-12-31T11:10:29.005Z,59.57
2018-12-31T11:12:55.734Z,58.57
2018-12-31T11:15:22.351Z,61.07
2018-12-31T11:17:48.946Z,73.93
2018-12-31T11:20:15.597Z,63.30
2018-12-31T11:22:42.477Z,62.53
2018-12-31T11:25:09.277Z,62.73
2018-12-31T11:27:35.697Z,53.60
2018-12-31T11:30:02.626Z,57.23
2018-12-31T11:32:29.176Z,53.17
2018-12-31T11:34:55.868Z,51.37
2018-12-31T11:37:22.271Z,53.03
2018-12-31T11:39:48.795Z,51.43
2018-12-31T11:42:15.210Z,49.93
2018-12-31T11:44:41.605Z,54.33
2018-12-31T11:47:08.024Z,51.70
2018-12-31T11:49:34.746Z,48.53
2018-12-31T11:52:01.274Z,53.03
2018-12-31T11:54:27.730Z,42.47
2018-12-31T11:56:54.172Z,47.17
2018-12-31T11:59:20.624Z,47.60
2018-12-31T12:01:47.145Z,44.47
2018-12-31T12:04:13.585Z,46.97
2018-12-31T12:06:40.181Z,47.77
2018-12-31T12:09:06.525Z,47.33
2018-12-31T12:11:33.190Z,51.93
2018-12-31T12:13:59.740Z,48.13
2018-12-31T12:16:26.532Z,49.87
2018-12-31T12:18:52.972Z,45.03
2018-12-31T12:21:20.043Z,38.90
2018-12-31T12:23:46.687Z,49.00
2018-12-31T12:26:13.540Z,46.07
2018-12-31T12:28:40.086Z,47.27
2018-12-31T12:31:06.624Z,49.30
2018-12-31T12:33:33.182Z,47.87
2018-12-31T12:36:00.187Z,50.03
2018-12-31T12:38:26.882Z,51.03
2018-12-31T12:40:53.663Z,47.17
2018-12-31T12:43:20.311Z,43.97
2018-12-31T12:45:46.957Z,44.93
2018-12-31T12:48:13.894Z,47.60
2018-12-31T12:50:41.016Z,46.43
2018-12-31T12:53:07.588Z,45.67
2018-12-31T12:55:34.273Z,44.97
2018-12-31T12:58:01.006Z,48.93
2018-12-31T13:00:27.820Z,48.07
2018-12-31T13:02:54.652Z,46.80
2018-12-31T13:05:21.847Z,41.47
2018-12-31T13:07:49.006Z,38.63
2018-12-31T13:10:15.572Z,38.93
2018-12-31T13:12:42.217Z,41.33
2018-12-31T13:15:09.066Z,37.83
2018-12-31T13:25:10.517Z,43.00
2018-12-31T13:27:36.796Z,40.67
2018-12-31T13:30:04.474Z,40.00
2018-12-31T13:32:30.990Z,41.03
2018-12-31T13:34:57.393Z,48.57
2018-12-31T13:37:23.936Z,48.53
2018-12-31T13:39:50.532Z,46.87
2018-12-31T13:42:17.319Z,46.20
2018-12-31T13:44:43.927Z,50.23
2018-12-31T13:47:10.620Z,53.60
2018-12-31T13:49:37.122Z,60.47
2018-12-31T13:52:03.746Z,52.27
2018-12-31T13:54:30.274Z,67.00
2018-12-31T13:56:56.909Z,54.83
2018-12-31T13:59:23.721Z,63.00
2018-12-31T14:01:50.235Z,65.43
2018-12-31T14:04:16.906Z,57.17
2018-12-31T14:06:44.948Z,58.67
2018-12-31T14:09:11.486Z,60.30
2018-12-31T14:11:38.139Z,56.57
2018-12-31T14:14:04.580Z,52.97
2018-12-31T14:16:32.465Z,46.93
2018-12-31T14:18:59.271Z,51.50
2018-12-31T14:21:25.750Z,42.40
2018-12-31T14:23:52.141Z,54.70
2018-12-31T14:26:19.187Z,51.20
2018-12-31T14:28:46.136Z,52.27
2018-12-31T14:31:12.799Z,54.80
2018-12-31T14:33:39.478Z,47.47
2018-12-31T14:36:06.236Z,54.90
2018-12-31T14:38:32.744Z,55.33
2018-12-31T14:40:59.229Z,49.57
2018-12-31T14:43:25.997Z,48.23
2018-12-31T14:45:52.655Z,50.67
2018-12-31T14:48:19.269Z,59.57
2018-12-31T14:50:46.255Z,51.43
2018-12-31T14:53:12.746Z,54.33
2018-12-31T14:58:07.898Z,54.23
2018-12-31T15:00:34.610Z,55.77
2018-12-31T15:03:01.168Z,59.30
2018-12-31T15:05:27.821Z,62.77
2018-12-31T15:07:54.549Z,60.70
2018-12-31T15:10:21.091Z,60.27
2018-12-31T15:12:48.047Z,62.13
2018-12-31T15:15:14.688Z,69.70
2018-12-31T15:17:41.256Z,61.30
2018-12-31T15:20:08.459Z,66.73
2018-12-31T15:22:35.146Z,65.17
2018-12-31T15:25:01.814Z,66.00
2018-12-31T15:27:28.897Z,63.20
2018-12-31T15:29:55.219Z,64.97
2018-12-31T15:32:21.861Z,63.97
2018-12-31T15:34:48.572Z,65.73
2018-12-31T15:37:15.005Z,60.93
2018-12-31T15:39:41.585Z,63.57
2018-12-31T15:42:08.297Z,61.20
2018-12-31T15:44:34.847Z,67.70
2018-12-31T15:47:02.431Z,69.20
2018-12-31T15:49:28.877Z,63.93
2018-12-31T15:51:55.496Z,56.83
2018-12-31T15:54:22.320Z,58.80
2018-12-31T15:56:48.853Z,60.97
2018-12-31T15:59:15.631Z,49.83
2018-12-31T16:01:42.368Z,58.40
2018-12-31T16:04:08.666Z,56.83
2018-12-31T16:06:35.298Z,54.80
2018-12-31T16:09:03.086Z,51.40
2018-12-31T16:11:29.643Z,59.97
2018-12-31T16:13:56.174Z,54.13
2018-12-31T16:16:22.682Z,49.37
2018-12-31T16:18:49.383Z,53.17
2018-12-31T16:21:15.904Z,46.70
2018-12-31T16:23:42.739Z,51.37
2018-12-31T16:26:09.928Z,44.90
2018-12-31T16:28:36.376Z,46.27
2018-12-31T16:31:03.080Z,49.30
2018-12-31T16:33:29.710Z,50.57
2018-12-31T16:35:56.262Z,50.03
2018-12-31T16:38:23.087Z,46.90
2018-12-31T16:40:49.729Z,50.67
2018-12-31T16:43:16.276Z,58.07
2018-12-31T16:45:42.828Z,58.97
2018-12-31T16:48:09.460Z,56.73
2018-12-31T16:50:35.977Z,57.70
2018-12-31T16:53:02.540Z,66.53
2018-12-31T16:55:29.185Z,60.20
2018-12-31T16:57:56.124Z,61.07
2018-12-31T17:00:23.077Z,64.13
2018-12-31T17:02:49.581Z,63.60
2018-12-31T17:05:16.177Z,69.10
2018-12-31T17:07:42.617Z,57.60
2018-12-31T17:10:09.267Z,62.03
2018-12-31T17:12:36.112Z,54.63
2018-12-31T17:15:04.330Z,53.00
2018-12-31T17:17:30.721Z,57.80
2018-12-31T17:19:57.423Z,59.90
2018-12-31T17:22:24.077Z,60.27
2018-12-31T17:24:50.703Z,57.13
2018-12-31T17:27:18.133Z,58.97
2018-12-31T17:29:44.903Z,58.77
2018-12-31T17:32:11.331Z,54.17
2018-12-31T17:34:37.739Z,56.30
2018-12-31T17:37:04.164Z,59.63
2018-12-31T17:39:30.711Z,58.83
2018-12-31T17:41:57.241Z,53.97
2018-12-31T17:44:23.597Z,66.60
2018-12-31T17:46:50.196Z,62.83
2018-12-31T17:49:16.562Z,60.60
2018-12-31T17:51:43.150Z,57.40
2018-12-31T17:54:09.694Z,57.33
2018-12-31T17:56:36.362Z,62.50
2018-12-31T17:59:03.216Z,65.37
2018-12-31T18:01:29.683Z,68.83
2018-12-31T18:03:56.079Z,66.20
2018-12-31T18:06:22.514Z,69.77
2018-12-31T18:08:49.149Z,69.03
2018-12-31T18:11:15.455Z,67.97
2018-12-31T18:13:42.307Z,71.33
2018-12-31T18:16:08.790Z,63.63
2018-12-31T18:18:35.320Z,96.23
2018-12-31T18:21:01.843Z,65.17
2018-12-31T18:23:28.612Z,71.07
2018-12-31T18:25:55.116Z,66.50
2018-12-31T18:28:21.937Z,69.67
2018-12-31T18:30:48.367Z,66.90
2018-12-31T18:33:14.771Z,64.93
2018-12-31T18:35:41.326Z,71.03
2018-12-31T18:38:07.779Z,71.03
2018-12-31T18:40:34.373Z,64.33
2018-12-31T18:43:00.853Z,58.13
2018-12-31T18:45:29.315Z,66.37
2018-12-31T18:47:55.866Z,63.67
2018-12-31T18:50:22.416Z,62.47
2018-12-31T18:52:48.823Z,61.13
2018-12-31T18:55:15.261Z,63.97
2018-12-31T18:57:41.782Z,58.63
2018-12-31T19:00:08.696Z,57.33
2018-12-31T19:02:35.292Z,61.00
2018-12-31T19:05:01.831Z,58.23
2018-12-31T19:07:28.350Z,58.37
2018-12-31T19:09:54.830Z,49.90
2018-12-31T19:12:21.591Z,46.77
2018-12-31T19:14:48.226Z,41.47
2018-12-31T19:17:14.831Z,43.43
2018-12-31T19:19:41.370Z,46.57
2018-12-31T19:22:07.795Z,42.73
2018-12-31T19:24:34.203Z,46.23
2018-12-31T19:27:00.717Z,39.10
2018-12-31T19:29:27.437Z,45.73
2018-12-31T19:31:53.988Z,40.17
2018-12-31T19:34:20.582Z,47.40
2018-12-31T19:36:46.937Z,44.13
2018-12-31T19:39:13.411Z,51.93
2018-12-31T19:41:39.728Z,54.77
2018-12-31T19:44:06.167Z,52.20
2018-12-31T19:46:32.716Z,72.63
2018-12-31T19:48:59.127Z,49.93
2018-12-31T19:51:25.606Z,45.07
2018-12-31T19:53:52.157Z,49.33
2018-12-31T19:56:18.832Z,45.87
2018-12-31T19:58:45.491Z,46.20
2018-12-31T20:01:12.242Z,48.07
2018-12-31T20:03:38.578Z,54.67
2018-12-31T20:06:05.062Z,44.23
2018-12-31T20:08:32.059Z,41.50
2018-12-31T20:10:58.483Z,46.43
2018-12-31T20:13:25.048Z,41.70
2018-12-31T20:15:52.205Z,38.70
2018-12-31T20:18:18.719Z,45.53
2018-12-31T20:20:45.265Z,45.63
2018-12-31T20:23:11.738Z,44.17
2018-12-31T20:25:38.352Z,37.53
2018-12-31T20:28:06.123Z,38.40
2018-12-31T20:30:33.079Z,39.17
2018-12-31T20:32:59.727Z,43.40
2018-12-31T20:35:26.268Z,39.53
2018-12-31T20:37:52.871Z,37.40
2018-12-31T20:40:19.523Z,37.00
2018-12-31T20:42:45.869Z,37.87
2018-12-31T20:45:12.587Z,42.90
2018-12-31T20:47:39.236Z,42.77
2018-12-31T20:50:06.283Z,44.87
2018-12-31T20:52:32.811Z,41.47
2018-12-31T20:54:59.581Z,48.93
2018-12-31T20:57:26.263Z,48.70
2018-12-31T20:59:52.702Z,53.43
2018-12-31T21:02:19.283Z,55.80
2018-12-31T21:04:46.407Z,54.17
2018-12-31T21:07:13.127Z,49.40
2018-12-31T21:09:39.560Z,50.20
2018-12-31T21:12:06.036Z,53.00
2018-12-31T21:14:32.823Z,52.50
2018-12-31T21:16:59.537Z,61.87
2018-12-31T21:19:26.183Z,61.63
2018-12-31T21:21:52.707Z,56.80
2018-12-31T21:24:19.354Z,52.37
2018-12-31T21:26:46.025Z,50.40
2018-12-31T21:29:12.307Z,54.47
2018-12-31T21:31:39.098Z,57.08
2018-12-31T21:34:05.597Z,60.50
2018-12-31T21:36:32.319Z,56.63
2018-12-31T21:38:59.072Z,55.03
2018-12-31T21:41:25.776Z,53.07
2018-12-31T21:43:52.289Z,57.67
2018-12-31T21:46:18.733Z,55.13
2018-12-31T21:48:45.217Z,51.47
2018-12-31T21:51:11.638Z,55.47
2018-12-31T21:53:38.052Z,55.93
2018-12-31T21:56:04.721Z,50.37
2018-12-31T21:58:31.047Z,54.57
2018-12-31T22:00:57.587Z,51.87
2018-12-31T22:03:24.063Z,55.50
2018-12-31T22:05:50.347Z,59.17
2018-12-31T22:08:17.273Z,57.97
2018-12-31T22:10:43.851Z,55.13
2018-12-31T22:13:10.526Z,50.13
2018-12-31T22:15:37.053Z,50.87
2018-12-31T22:18:03.625Z,53.27
2018-12-31T22:20:30.219Z,91.60
2018-12-31T22:22:56.858Z,62.83
2018-12-31T22:25:23.474Z,59.30
2018-12-31T22:27:49.880Z,77.83
2018-12-31T22:30:16.428Z,73.43
2018-12-31T22:32:43.027Z,68.00
2018-12-31T22:35:09.531Z,73.70
2018-12-31T22:37:36.130Z,78.47
2018-12-31T22:40:03.585Z,75.20
2018-12-31T22:42:30.282Z,75.30
2018-12-31T22:44:56.919Z,72.77
2018-12-31T22:47:23.357Z,73.93
2018-12-31T22:49:49.908Z,79.67
2018-12-31T22:52:16.206Z,78.27
2018-12-31T22:54:43.014Z,81.23
2018-12-31T22:57:09.484Z,85.73
2018-12-31T22:59:36.063Z,87.43
2018-12-31T23:02:03.027Z,90.40
2018-12-31T23:04:29.783Z,106.37
2018-12-31T23:06:56.783Z,197.70
2018-12-31T23:09:23.731Z,218.73
2018-12-31T23:11:50.218Z,209.50
2018-12-31T23:14:16.827Z,341.10
2018-12-31T23:16:43.441Z,334.77
2018-12-31T23:19:09.913Z,364.33
2018-12-31T23:21:36.425Z,378.00
2018-12-31T23:24:03.327Z,331.30
2018-12-31T23:26:29.923Z,314.10
2018-12-31T23:28:56.367Z,307.07
2018-12-31T23:31:22.789Z,269.57
2018-12-31T23:33:49.419Z,268.50
2018-12-31T23:36:16.077Z,219.50
2018-12-31T23:38:42.561Z,210.27
2018-12-31T23:41:09.095Z,217.07
2018-12-31T23:43:35.692Z,182.17
2018-12-31T23:46:02.087Z,188.20
2018-12-31T23:48:28.634Z,178.03
2018-12-31T23:50:55.245Z,174.53
2018-12-31T23:53:21.697Z,155.33
2018-12-31T23:55:48.496Z,173.63
2018-12-31T23:58:15.008Z,192.80
